Time;durP1;ratioP1;P1;durP2;ratioP2;P2;SDS_P1;SDS_P2;PMS_P1;PMS_P2;Temp;Humidity;BMP_temperature;BMP_pressure;BME280_temperature;BME280_humidity;BME280_pressure;Samples;Min_cycle;Max_cycle;Signal;HPM_P1;HPM_P2
2022/04/17 00:00:15;;;;;;;4.85;4.10;;;15.00;99.90;;;;;;5013308;28;20282;-77
2022/04/17 00:02:43;;;;;;;3.85;3.47;;;15.10;99.90;;;;;;5013604;28;20685;-74
2022/04/17 00:05:10;;;;;;;4.18;3.83;;;15.00;99.90;;;;;;5012857;28;20307;-74
2022/04/17 00:07:38;;;;;;;4.65;4.15;;;15.00;99.90;;;;;;5013403;28;20236;-74
2022/04/17 00:10:06;;;;;;;4.90;4.15;;;14.80;99.90;;;;;;5013091;28;20204;-73
2022/04/17 00:12:33;;;;;;;6.18;4.57;;;14.70;99.90;;;;;;5013555;28;20250;-74
2022/04/17 00:15:03;;;;;;;5.43;3.83;;;14.70;99.90;;;;;;5013392;28;20278;-73
2022/04/17 00:17:31;;;;;;;5.28;4.20;;;14.70;99.90;;;;;;5013518;28;20274;-72
2022/04/17 00:19:58;;;;;;;4.53;3.70;;;14.80;99.90;;;;;;5012152;28;20200;-74
2022/04/17 00:22:26;;;;;;;5.13;4.63;;;14.70;99.90;;;;;;5013375;28;20205;-73
2022/04/17 00:24:53;;;;;;;6.10;4.18;;;14.60;99.90;;;;;;5013111;28;20733;-74
2022/04/17 00:27:20;;;;;;;4.07;3.67;;;14.60;99.90;;;;;;5012814;28;20244;-73
2022/04/17 00:29:47;;;;;;;5.10;3.22;;;14.50;99.90;;;;;;5013005;28;20208;-73
2022/04/17 00:32:14;;;;;;;5.25;4.75;;;14.50;99.90;;;;;;5012542;28;20672;-73
2022/04/17 00:34:44;;;;;;;4.53;3.33;;;14.50;99.90;;;;;;5012715;28;20204;-74
2022/04/17 00:37:11;;;;;;;4.45;4.10;;;14.50;99.90;;;;;;5012820;28;20567;-75
2022/04/17 00:39:39;;;;;;;4.32;3.92;;;14.50;99.90;;;;;;5013010;28;20258;-74
2022/04/17 00:42:07;;;;;;;5.25;4.10;;;14.40;99.90;;;;;;5012501;28;20204;-73
2022/04/17 00:44:34;;;;;;;4.82;3.90;;;14.30;99.90;;;;;;5012858;28;20608;-75
2022/04/17 00:47:01;;;;;;;5.72;3.92;;;14.30;99.90;;;;;;5012534;28;20232;-73
2022/04/17 00:49:28;;;;;;;4.10;3.20;;;14.30;99.90;;;;;;5012962;28;20591;-74
2022/04/17 00:51:57;;;;;;;6.13;3.67;;;14.40;99.90;;;;;;5013136;28;20208;-76
2022/04/17 00:54:25;;;;;;;4.30;3.90;;;14.30;99.90;;;;;;5012559;28;20207;-73
2022/04/17 00:56:53;;;;;;;5.35;3.95;;;14.20;99.90;;;;;;5012641;28;20218;-72
2022/04/17 00:59:22;;;;;;;4.65;3.88;;;14.30;99.90;;;;;;5012147;28;20204;-74
2022/04/17 01:01:49;;;;;;;5.82;4.15;;;14.20;99.90;;;;;;5012486;28;20295;-72
2022/04/17 01:04:16;;;;;;;5.28;3.42;;;14.10;99.90;;;;;;5011804;28;21160;-72
2022/04/17 01:06:43;;;;;;;3.97;3.65;;;14.20;99.90;;;;;;5012287;28;20254;-72
2022/04/17 01:09:11;;;;;;;5.82;4.40;;;14.20;99.90;;;;;;5011921;28;20208;-72
2022/04/17 01:11:41;;;;;;;4.15;3.70;;;14.10;99.90;;;;;;5012321;28;20200;-73
2022/04/17 01:14:12;;;;;;;5.45;4.18;;;14.00;99.90;;;;;;5011828;28;20266;-73
2022/04/17 01:16:39;;;;;;;5.18;4.60;;;13.90;99.90;;;;;;5012154;28;20283;-72
2022/04/17 01:19:11;;;;;;;5.25;4.15;;;13.90;99.90;;;;;;5011704;28;20258;-73
2022/04/17 01:21:41;;;;;;;5.20;4.03;;;13.90;99.90;;;;;;5011963;28;20208;-78
2022/04/17 01:26:57;;;;;;;6.57;4.75;;;14.00;99.90;;;;;;5011810;28;20737;-75
2022/04/17 01:29:26;;;;;;;4.75;3.60;;;14.00;99.90;;;;;;5011974;28;20239;-73
2022/04/17 01:31:53;;;;;;;5.05;3.72;;;14.00;99.90;;;;;;5011470;28;20212;-73
2022/04/17 01:34:22;;;;;;;4.68;4.20;;;13.90;99.90;;;;;;5011564;28;20208;-78
2022/04/17 01:36:51;;;;;;;4.35;3.95;;;13.90;99.90;;;;;;5011877;28;20208;-73
2022/04/17 01:39:19;;;;;;;4.68;3.90;;;13.90;99.90;;;;;;5011328;28;20254;-72
2022/04/17 01:41:47;;;;;;;4.35;3.92;;;13.90;99.90;;;;;;5011974;28;20255;-74
2022/04/17 01:44:16;;;;;;;5.82;3.88;;;13.70;99.90;;;;;;5011490;28;20594;-77
2022/04/17 01:46:44;;;;;;;4.90;4.00;;;13.70;99.90;;;;;;5011528;28;20290;-73
2022/04/17 01:49:11;;;;;;;6.43;4.47;;;13.70;99.90;;;;;;5011314;28;20207;-72
2022/04/17 01:51:39;;;;;;;5.25;4.75;;;13.70;99.90;;;;;;5011369;28;20656;-73
2022/04/17 01:54:09;;;;;;;4.43;4.03;;;13.60;99.90;;;;;;5011062;28;20208;-76
2022/04/17 01:56:37;;;;;;;7.30;4.78;;;13.60;99.90;;;;;;5011460;28;20204;-74
2022/04/17 01:59:05;;;;;;;5.95;4.25;;;13.60;99.90;;;;;;5011032;28;20682;-72
2022/04/17 02:01:33;;;;;;;6.03;4.50;;;13.60;99.90;;;;;;5011247;28;20208;-78
2022/04/17 02:04:00;;;;;;;5.43;4.60;;;13.60;99.90;;;;;;5011040;28;20210;-73
2022/04/17 02:06:27;;;;;;;7.18;4.50;;;13.50;99.90;;;;;;5011424;28;20211;-78
2022/04/17 02:08:54;;;;;;;5.85;4.57;;;13.50;99.90;;;;;;5011832;28;20239;-75
2022/04/17 02:11:24;;;;;;;4.20;3.90;;;13.40;99.90;;;;;;5010934;28;20213;-76
2022/04/17 02:13:52;;;;;;;6.68;4.15;;;13.50;99.90;;;;;;5011319;28;20266;-75
2022/04/17 02:16:20;;;;;;;10.68;5.65;;;13.50;99.90;;;;;;5010404;28;20263;-72
2022/04/17 02:18:47;;;;;;;5.50;4.53;;;13.60;99.90;;;;;;5011167;28;20650;-73
2022/04/17 02:21:15;;;;;;;6.10;4.68;;;13.50;99.90;;;;;;5010719;28;20204;-76
2022/04/17 02:23:43;;;;;;;6.45;4.75;;;13.50;99.90;;;;;;5011296;28;20207;-76
2022/04/17 02:26:10;;;;;;;4.45;4.07;;;13.40;99.90;;;;;;5010831;28;20258;-74
2022/04/17 02:28:40;;;;;;;6.32;4.75;;;13.30;99.90;;;;;;5010932;28;20650;-76
2022/04/17 02:31:08;;;;;;;5.10;4.60;;;13.20;99.90;;;;;;5010473;28;20262;-75
2022/04/17 02:33:35;;;;;;;6.60;4.72;;;13.20;99.90;;;;;;5011079;28;20266;-73
2022/04/17 02:36:02;;;;;;;7.95;5.35;;;13.20;99.90;;;;;;5010573;28;20211;-73
2022/04/17 02:38:29;;;;;;;5.28;4.80;;;13.20;99.90;;;;;;5011117;28;20200;-74
2022/04/17 02:40:57;;;;;;;5.20;4.70;;;13.10;99.90;;;;;;5011218;28;20606;-74
2022/04/17 02:43:24;;;;;;;6.93;6.20;;;13.10;99.90;;;;;;5011898;28;20204;-74
2022/04/17 02:45:53;;;;;;;7.15;5.40;;;13.00;99.90;;;;;;5014767;28;20208;-74
2022/04/17 02:48:20;;;;;;;8.27;5.72;;;12.90;99.90;;;;;;5014430;28;20235;-75
2022/04/17 02:50:48;;;;;;;6.15;4.93;;;13.00;99.90;;;;;;5015040;28;20230;-76
2022/04/17 02:53:15;;;;;;;8.57;5.15;;;12.90;99.90;;;;;;5014399;28;20299;-76
2022/04/17 02:55:42;;;;;;;10.48;6.72;;;12.90;99.90;;;;;;5003829;28;20299;-78
2022/04/17 02:58:10;;;;;;;6.38;4.63;;;12.90;99.90;;;;;;4994829;28;20209;-76
2022/04/17 03:05:36;;;;;;;5.50;4.55;;;12.90;99.90;;;;;;4995118;28;20205;-78
2022/04/17 03:06:12;;;;;;;5.25;4.47;;;12.90;99.90;;;;;;4994832;28;20216;-74
2022/04/17 03:08:40;;;;;;;5.80;4.72;;;12.90;99.90;;;;;;4994899;28;20367;-73
2022/04/17 03:11:07;;;;;;;5.95;5.35;;;12.90;99.90;;;;;;4994815;28;20287;-76
2022/04/17 03:13:34;;;;;;;5.50;5.00;;;13.00;99.90;;;;;;4994689;28;20668;-75
2022/04/17 03:16:01;;;;;;;8.40;6.13;;;13.00;99.90;;;;;;4994766;28;20633;-74
2022/04/17 03:18:30;;;;;;;7.72;4.70;;;12.90;99.90;;;;;;4995219;28;20213;-74
2022/04/17 03:20:58;;;;;;;5.97;4.05;;;12.90;99.90;;;;;;4995097;28;20626;-74
2022/04/17 03:23:25;;;;;;;5.80;5.30;;;12.80;99.90;;;;;;4994824;28;20205;-74
2022/04/17 03:25:52;;;;;;;6.78;4.93;;;12.80;99.90;;;;;;4994901;28;20205;-73
2022/04/17 03:28:19;;;;;;;7.75;5.25;;;12.70;99.90;;;;;;4994076;28;20307;-73
2022/04/17 03:30:46;;;;;;;10.23;6.20;;;12.70;99.90;;;;;;4994643;28;20268;-73
2022/04/17 03:33:13;;;;;;;6.07;5.03;;;12.70;99.90;;;;;;4994371;28;20275;-74
2022/04/17 03:35:41;;;;;;;6.78;6.18;;;12.70;99.90;;;;;;4994486;28;20220;-77
2022/04/17 03:38:09;;;;;;;6.55;5.75;;;12.70;99.90;;;;;;4994109;28;20677;-73
2022/04/17 03:40:36;;;;;;;6.72;5.50;;;12.60;99.90;;;;;;4994471;28;20208;-78
2022/04/17 03:43:03;;;;;;;7.18;5.72;;;12.60;99.90;;;;;;4993788;28;20237;-74
2022/04/17 03:45:30;;;;;;;7.75;5.13;;;12.40;99.90;;;;;;4994460;28;20205;-74
2022/04/17 03:47:58;;;;;;;6.50;5.43;;;12.50;99.90;;;;;;4994508;28;20228;-74
2022/04/17 03:50:25;;;;;;;6.40;5.53;;;12.50;99.90;;;;;;4994086;28;20647;-73
2022/04/17 03:52:54;;;;;;;6.93;5.55;;;12.30;99.90;;;;;;4994196;28;20288;-73
2022/04/17 03:55:21;;;;;;;5.13;4.72;;;12.30;99.90;;;;;;4993634;28;20212;-73
2022/04/17 03:57:48;;;;;;;6.13;5.13;;;12.20;99.90;;;;;;4994145;28;20216;-75
2022/04/17 04:00:16;;;;;;;6.80;5.60;;;12.30;99.90;;;;;;4993729;28;20564;-78
2022/04/17 04:02:45;;;;;;;9.20;6.70;;;12.30;99.90;;;;;;4993964;28;20212;-75
2022/04/17 04:05:12;;;;;;;9.02;6.25;;;12.20;99.90;;;;;;4993299;28;20625;-77
2022/04/17 04:07:40;;;;;;;6.72;6.13;;;12.20;99.90;;;;;;4994119;28;20228;-73
2022/04/17 04:10:10;;;;;;;6.95;6.25;;;12.20;99.90;;;;;;4993469;28;20553;-74
2022/04/17 04:12:38;;;;;;;6.05;5.45;;;12.20;99.90;;;;;;4993632;28;20614;-73
2022/04/17 04:15:06;;;;;;;6.70;4.90;;;12.20;99.90;;;;;;4993895;28;20645;-73
2022/04/17 04:17:33;;;;;;;6.70;5.72;;;12.20;99.90;;;;;;4993722;28;20201;-73
2022/04/17 04:20:00;;;;;;;7.55;5.45;;;12.20;99.90;;;;;;4993852;28;20259;-73
2022/04/17 04:22:28;;;;;;;6.72;6.18;;;12.20;99.90;;;;;;4993971;28;20633;-73
2022/04/17 04:24:55;;;;;;;7.30;6.38;;;12.20;99.90;;;;;;4994049;28;20213;-74
2022/04/17 04:30:09;;;;;;;7.50;6.80;;;12.30;99.90;;;;;;4993156;28;20212;-73
2022/04/17 04:32:36;;;;;;;9.85;6.60;;;12.20;99.90;;;;;;4993651;28;20300;-73
2022/04/17 04:35:04;;;;;;;8.65;7.13;;;12.20;99.90;;;;;;4993245;28;20268;-72
2022/04/17 04:37:31;;;;;;;6.30;5.20;;;12.10;99.90;;;;;;4993410;28;20251;-75
2022/04/17 04:39:59;;;;;;;8.40;6.55;;;12.00;99.90;;;;;;4993419;28;20228;-74
2022/04/17 04:42:28;;;;;;;8.52;5.82;;;12.00;99.90;;;;;;4993189;28;20201;-74
2022/04/17 04:47:36;;;;;;;7.10;6.40;;;11.80;99.90;;;;;;4991927;28;20580;-73
2022/04/17 04:50:02;;;;;;;7.15;6.45;;;11.90;99.90;;;;;;4992658;28;20204;-75
2022/04/17 04:52:29;;;;;;;9.23;5.70;;;11.90;99.90;;;;;;4993329;28;20291;-73
2022/04/17 04:54:56;;;;;;;7.10;5.90;;;11.90;99.90;;;;;;4992491;28;20287;-72
2022/04/17 04:57:23;;;;;;;7.57;6.53;;;11.80;99.90;;;;;;4992787;28;20665;-73
2022/04/17 04:59:53;;;;;;;9.18;7.03;;;11.80;99.90;;;;;;4993148;28;20213;-73
2022/04/17 05:02:20;;;;;;;10.03;6.33;;;11.80;99.90;;;;;;4992605;28;20262;-79
2022/04/17 05:04:46;;;;;;;8.05;7.35;;;11.90;99.90;;;;;;4992825;28;20617;-73
2022/04/17 05:07:13;;;;;;;7.67;6.80;;;11.80;99.90;;;;;;4991900;28;20205;-73
2022/04/17 05:09:40;;;;;;;11.63;8.37;;;11.80;99.90;;;;;;4992212;28;20233;-72
2022/04/17 05:12:08;;;;;;;9.47;7.87;;;11.70;99.90;;;;;;4992562;28;20213;-79
2022/04/17 05:14:35;;;;;;;8.40;7.13;;;11.60;99.90;;;;;;4992850;28;20267;-75
2022/04/17 05:17:04;;;;;;;7.13;6.38;;;11.70;99.90;;;;;;4992271;28;20213;-73
2022/04/17 05:19:31;;;;;;;8.05;7.25;;;11.70;99.90;;;;;;4992708;28;20200;-76
2022/04/17 05:21:59;;;;;;;7.43;6.55;;;11.70;99.90;;;;;;4992688;28;20704;-73
2022/04/17 05:24:26;;;;;;;10.15;7.53;;;11.70;99.90;;;;;;4992075;28;20208;-74
2022/04/17 05:26:53;;;;;;;8.82;7.65;;;11.80;99.90;;;;;;4992463;28;20209;-73
2022/04/17 05:29:20;;;;;;;9.32;6.75;;;11.90;99.90;;;;;;4992146;28;20237;-80
2022/04/17 05:31:48;;;;;;;8.80;7.30;;;11.90;99.90;;;;;;4992263;28;20263;-75
2022/04/17 05:34:16;;;;;;;7.87;7.00;;;12.00;99.90;;;;;;4991961;28;20213;-75
2022/04/17 05:36:44;;;;;;;8.00;7.00;;;11.90;99.90;;;;;;4992214;28;20278;-75
2022/04/17 05:39:11;;;;;;;9.77;7.67;;;11.90;99.90;;;;;;4991875;28;20208;-74
2022/04/17 05:41:38;;;;;;;8.53;7.03;;;11.80;99.90;;;;;;4992415;28;20243;-73
2022/04/17 05:44:07;;;;;;;8.83;6.70;;;11.90;99.90;;;;;;4991725;28;20209;-73
2022/04/17 05:46:36;;;;;;;8.20;7.33;;;11.90;99.90;;;;;;4992206;28;20292;-74
2022/04/17 05:49:04;;;;;;;9.03;8.20;;;12.00;99.90;;;;;;4991621;28;20259;-74
2022/04/17 05:51:34;;;;;;;9.13;7.63;;;11.90;99.90;;;;;;4992496;28;20209;-73
2022/04/17 05:54:02;;;;;;;9.30;7.17;;;12.00;99.90;;;;;;4991790;28;20676;-77
2022/04/17 05:56:29;;;;;;;9.63;7.57;;;12.00;99.90;;;;;;4992049;28;20664;-74
2022/04/17 05:58:56;;;;;;;15.18;8.52;;;11.90;99.90;;;;;;4992194;28;20205;-75
2022/04/17 06:01:24;;;;;;;10.50;8.05;;;11.90;99.90;;;;;;4991492;28;20205;-73
2022/04/17 06:03:51;;;;;;;10.73;7.80;;;12.00;99.90;;;;;;4991740;28;20201;-80
2022/04/17 06:06:18;;;;;;;8.95;8.05;;;12.00;99.90;;;;;;4991544;28;20201;-73
2022/04/17 06:08:47;;;;;;;10.55;8.07;;;12.00;99.90;;;;;;4991684;28;20236;-81
2022/04/17 06:11:14;;;;;;;11.27;8.38;;;12.20;99.90;;;;;;4991432;28;20259;-75
2022/04/17 06:13:41;;;;;;;23.20;20.83;;;12.20;99.90;;;;;;4991591;28;20209;-77
2022/04/17 06:16:08;;;;;;;21.13;18.90;;;12.20;99.90;;;;;;4991230;28;20256;-76
2022/04/17 06:18:35;;;;;;;22.80;20.42;;;12.20;99.90;;;;;;4990584;28;20208;-75
2022/04/17 06:21:02;;;;;;;15.13;13.00;;;12.30;99.90;;;;;;4991333;28;20205;-75
2022/04/17 06:23:29;;;;;;;11.53;9.00;;;12.30;99.90;;;;;;4991480;28;20635;-74
2022/04/17 06:25:58;;;;;;;13.23;11.73;;;12.30;99.90;;;;;;4991705;28;20665;-76
2022/04/17 06:28:25;;;;;;;9.90;8.02;;;12.40;99.90;;;;;;4991468;28;20224;-77
2022/04/17 06:30:52;;;;;;;22.50;14.30;;;12.40;99.90;;;;;;4991189;28;20201;-74
2022/04/17 06:33:18;;;;;;;32.50;20.93;;;12.40;99.90;;;;;;4991229;28;20204;-73
2022/04/17 06:35:45;;;;;;;21.63;14.43;;;12.50;99.90;;;;;;4991547;28;20598;-74
2022/04/17 06:38:13;;;;;;;23.98;17.10;;;12.60;99.90;;;;;;4990737;28;20208;-75
2022/04/17 06:40:40;;;;;;;19.02;14.30;;;12.70;99.90;;;;;;4991860;28;20205;-77
2022/04/17 06:43:09;;;;;;;56.92;34.53;;;12.80;99.90;;;;;;4991024;28;20620;-73
2022/04/17 06:45:37;;;;;;;18.90;14.13;;;13.00;99.90;;;;;;4991280;28;20212;-75
2022/04/17 06:48:14;;;;;;;70.07;42.60;;;12.90;99.90;;;;;;4991157;28;20204;-73
2022/04/17 06:50:42;;;;;;;33.88;23.15;;;12.90;99.90;;;;;;4991109;28;20208;-74
2022/04/17 06:53:09;;;;;;;35.33;32.13;;;13.00;99.90;;;;;;4990835;28;20209;-74
2022/04/17 06:55:36;;;;;;;32.10;28.83;;;13.10;99.90;;;;;;4991162;28;20332;-74
2022/04/17 06:58:03;;;;;;;38.25;34.50;;;13.20;99.90;;;;;;4990852;28;20235;-73
2022/04/17 07:00:32;;;;;;;15.75;13.07;;;13.30;99.90;;;;;;4991409;28;20209;-74
2022/04/17 07:02:59;;;;;;;15.23;13.63;;;13.40;99.90;;;;;;4991435;28;20680;-82
2022/04/17 07:05:26;;;;;;;13.02;11.73;;;13.40;99.90;;;;;;4990648;28;20248;-74
2022/04/17 07:08:00;;;;;;;11.93;10.63;;;13.60;99.90;;;;;;4991098;28;20698;-74
2022/04/17 07:10:27;;;;;;;11.77;8.90;;;13.60;99.90;;;;;;4991225;28;20715;-75
2022/04/17 07:12:54;;;;;;;10.00;8.80;;;13.70;99.90;;;;;;4991595;28;20251;-75
2022/04/17 07:15:23;;;;;;;8.10;7.22;;;13.80;99.90;;;;;;4990878;28;20593;-75
2022/04/17 07:17:53;;;;;;;8.95;7.65;;;13.90;99.90;;;;;;4990892;28;20656;-79
2022/04/17 07:20:20;;;;;;;8.45;7.75;;;14.10;99.90;;;;;;4990576;28;20205;-74
2022/04/17 07:22:49;;;;;;;8.65;7.85;;;14.00;99.90;;;;;;4990909;28;20256;-76
2022/04/17 07:25:17;;;;;;;8.02;7.22;;;14.10;99.90;;;;;;4990977;28;20204;-77
2022/04/17 07:27:45;;;;;;;8.73;7.45;;;14.20;99.90;;;;;;4990906;28;20618;-78
2022/04/17 07:30:14;;;;;;;8.55;7.50;;;14.30;99.90;;;;;;4992756;28;20642;-75
2022/04/17 07:32:42;;;;;;;12.45;9.55;;;14.40;99.90;;;;;;4994710;28;20201;-77
2022/04/17 07:35:11;;;;;;;7.88;6.38;;;14.50;99.90;;;;;;4994038;28;20205;-78
2022/04/17 07:37:39;;;;;;;7.70;6.82;;;14.90;99.90;;;;;;4994408;28;21114;-77
2022/04/17 07:40:15;;;;;;;8.30;7.50;;;14.90;99.90;;;;;;4994003;28;20217;-76
2022/04/17 07:42:42;;;;;;;7.28;6.57;;;15.00;99.90;;;;;;4994463;28;20643;-81
2022/04/17 07:45:10;;;;;;;8.65;6.43;;;15.00;99.90;;;;;;4993985;28;20211;-78
2022/04/17 07:47:37;;;;;;;8.95;7.18;;;15.00;99.90;;;;;;4994344;28;20205;-81
2022/04/17 07:50:05;;;;;;;7.25;6.22;;;15.50;99.90;;;;;;4993474;28;20595;-74
2022/04/17 07:52:34;;;;;;;6.57;5.70;;;16.00;99.90;;;;;;4994262;28;20256;-75
2022/04/17 07:55:01;;;;;;;5.68;4.93;;;16.10;99.90;;;;;;4993990;28;20708;-79
2022/04/17 07:57:28;;;;;;;7.38;6.70;;;16.00;99.90;;;;;;4994588;28;20299;-79
2022/04/17 07:59:56;;;;;;;7.75;6.88;;;15.90;99.90;;;;;;4994338;28;20251;-81
2022/04/17 08:02:28;;;;;;;9.32;5.85;;;15.70;99.90;;;;;;4993759;28;20583;-80
2022/04/17 08:04:55;;;;;;;6.88;6.28;;;15.80;99.90;;;;;;4993926;28;20213;-80
2022/04/17 08:07:22;;;;;;;6.25;5.25;;;15.90;99.90;;;;;;4993594;28;20213;-81
2022/04/17 08:09:52;;;;;;;5.88;5.30;;;15.90;99.90;;;;;;4993754;28;20656;-81
2022/04/17 08:12:19;;;;;;;8.30;5.82;;;16.10;99.90;;;;;;4993558;28;20513;-78
2022/04/17 08:14:46;;;;;;;6.63;5.20;;;16.30;99.90;;;;;;4993810;28;20256;-76
2022/04/17 08:17:13;;;;;;;6.15;5.55;;;16.40;99.90;;;;;;4993281;28;20665;-81
2022/04/17 08:19:40;;;;;;;6.28;5.68;;;16.30;99.90;;;;;;4993576;28;20263;-75
2022/04/17 08:22:07;;;;;;;6.18;5.07;;;16.20;99.90;;;;;;4993474;28;20204;-80
2022/04/17 08:24:34;;;;;;;7.80;5.53;;;16.20;99.90;;;;;;4993799;28;20256;-74
2022/04/17 08:27:02;;;;;;;5.72;5.15;;;16.20;99.90;;;;;;4993645;28;20209;-75
2022/04/17 08:29:30;;;;;;;8.80;6.00;;;16.40;99.90;;;;;;4993629;28;20232;-75
2022/04/17 08:31:57;;;;;;;6.18;5.18;;;16.60;99.90;;;;;;4993820;28;20201;-77
2022/04/17 08:34:24;;;;;;;7.80;5.88;;;16.70;99.90;;;;;;4993603;28;20244;-75
2022/04/17 08:36:51;;;;;;;6.63;5.40;;;16.80;99.90;;;;;;4993387;28;20630;-81
2022/04/17 08:39:18;;;;;;;7.10;4.95;;;16.90;99.90;;;;;;4993120;28;20205;-74
2022/04/17 08:41:47;;;;;;;5.28;4.32;;;17.30;99.90;;;;;;4992277;28;20216;-75
2022/04/17 08:44:15;;;;;;;4.18;3.60;;;17.90;99.90;;;;;;4992870;28;20270;-81
2022/04/17 08:46:42;;;;;;;4.72;4.35;;;17.90;99.90;;;;;;4993041;28;20673;-75
2022/04/17 08:49:11;;;;;;;5.63;5.20;;;17.60;99.90;;;;;;4992742;28;20719;-80
2022/04/17 08:51:39;;;;;;;5.35;4.65;;;17.50;99.90;;;;;;4993299;28;20204;-78
2022/04/17 08:54:07;;;;;;;5.85;4.32;;;17.80;99.90;;;;;;4992710;28;20259;-81
2022/04/17 08:56:36;;;;;;;4.10;3.80;;;17.80;99.90;;;;;;4993048;28;20201;-81
2022/04/17 08:59:03;;;;;;;4.25;3.83;;;17.70;99.90;;;;;;4992548;28;20562;-74
2022/04/17 09:01:32;;;;;;;5.40;4.07;;;17.60;99.90;;;;;;4992941;28;20271;-75
2022/04/17 09:03:59;;;;;;;9.50;4.55;;;17.90;99.90;;;;;;4992765;28;20209;-75
2022/04/17 09:06:27;;;;;;;4.30;3.90;;;17.90;99.90;;;;;;4992739;28;20209;-77
2022/04/17 09:08:58;;;;;;;4.20;3.80;;;17.90;99.90;;;;;;4992933;28;20212;-77
2022/04/17 09:11:28;;;;;;;5.82;4.35;;;18.10;99.90;;;;;;4992663;28;20207;-75
2022/04/17 09:13:56;;;;;;;4.90;4.38;;;18.00;99.90;;;;;;4993281;28;20205;-76
2022/04/17 09:16:28;;;;;;;4.38;3.63;;;18.20;99.90;;;;;;4992193;28;20205;-76
2022/04/17 09:18:57;;;;;;;4.07;3.67;;;18.50;99.90;;;;;;4992920;28;20201;-74
2022/04/17 09:21:32;;;;;;;4.60;4.20;;;18.50;99.90;;;;;;4992284;28;20686;-80
2022/04/17 09:24:18;;;;;;;4.60;3.78;;;18.60;99.90;;;;;;4992726;28;20235;-75
2022/04/17 09:26:50;;;;;;;4.50;3.15;;;18.50;99.90;;;;;;4991868;28;20208;-75
2022/04/17 09:29:21;;;;;;;3.40;3.10;;;18.90;99.90;;;;;;4992027;28;20248;-80
2022/04/17 09:31:49;;;;;;;3.50;3.20;;;19.00;99.90;;;;;;4992106;28;20209;-78
2022/04/17 09:34:17;;;;;;;4.25;3.72;;;18.90;99.90;;;;;;4991921;28;20204;-75
2022/04/17 09:36:44;;;;;;;4.43;3.92;;;19.00;99.90;;;;;;4992205;28;20251;-75
2022/04/17 09:39:15;;;;;;;4.10;3.33;;;19.30;99.90;;;;;;4992064;28;20205;-76
2022/04/17 09:41:59;;;;;;;3.88;3.58;;;19.60;99.90;;;;;;4992144;28;20217;-77
2022/04/17 09:44:36;;;;;;;7.05;3.53;;;19.50;99.90;;;;;;4992033;28;20208;-75
2022/04/17 09:47:05;;;;;;;3.75;3.30;;;19.70;99.90;;;;;;4991941;28;20263;-78
2022/04/17 09:49:51;;;;;;;3.78;3.38;;;20.10;99.90;;;;;;4991950;28;20739;-79
2022/04/17 09:52:18;;;;;;;3.95;3.65;;;20.30;99.90;;;;;;4991540;28;20209;-75
2022/04/17 09:54:45;;;;;;;3.45;3.15;;;21.90;99.90;;;;;;4991670;28;20731;-76
2022/04/17 09:57:18;;;;;;;4.20;3.83;;;24.70;99.90;;;;;;4991497;28;20263;-82
2022/04/17 09:59:45;;;;;;;6.55;4.05;;;25.60;99.90;;;;;;4991738;28;20205;-75
2022/04/17 10:02:13;;;;;;;3.95;3.60;;;23.60;99.90;;;;;;4991708;28;20212;-75
2022/04/17 10:04:42;;;;;;;4.15;3.75;;;22.70;99.90;;;;;;4991835;28;20220;-78
2022/04/17 10:07:12;;;;;;;4.07;3.45;;;23.80;99.90;;;;;;4991441;28;20210;-77
2022/04/17 10:09:39;;;;;;;4.50;4.10;;;24.80;99.90;;;;;;4991618;28;20774;-77
2022/04/17 10:12:07;;;;;;;6.90;3.92;;;27.10;99.90;;;;;;4991535;28;20209;-75
2022/04/17 10:14:37;;;;;;;2.67;2.47;;;29.20;99.90;;;;;;4991677;28;20264;-82
2022/04/17 10:17:09;;;;;;;3.05;2.83;;;29.70;99.90;;;;;;4991614;28;20204;-82
2022/04/17 10:19:37;;;;;;;3.83;3.42;;;28.70;99.90;;;;;;4991700;28;20205;-81
2022/04/17 10:22:09;;;;;;;3.22;2.92;;;27.40;99.90;;;;;;4991167;28;20267;-78
2022/04/17 10:24:38;;;;;;;3.83;3.53;;;26.50;99.90;;;;;;4991685;28;20348;-82
2022/04/17 10:27:08;;;;;;;3.80;3.50;;;26.80;99.90;;;;;;4991273;28;20212;-82
2022/04/17 10:29:43;;;;;;;3.47;3.17;;;26.30;99.90;;;;;;4991611;28;20259;-81
2022/04/17 10:32:24;;;;;;;3.92;3.45;;;27.20;99.90;;;;;;4991129;28;20212;-74
2022/04/17 10:35:12;;;;;;;4.30;3.90;;;24.90;99.90;;;;;;4991400;28;20637;-81
2022/04/17 10:38:13;;;;;;;5.00;3.47;;;21.50;99.90;;;;;;4991342;28;20240;-77
2022/04/17 10:40:52;;;;;;;3.30;3.00;;;20.90;99.90;;;;;;4991422;28;20627;-78
2022/04/17 10:43:20;;;;;;;2.55;2.35;;;20.60;99.90;;;;;;4990708;28;20204;-75
2022/04/17 10:46:09;;;;;;;4.85;3.35;;;20.60;99.90;;;;;;4991493;28;20205;-75
2022/04/17 10:48:46;;;;;;;3.63;3.33;;;20.50;99.90;;;;;;4991458;28;20205;-77
2022/04/17 10:51:15;;;;;;;4.55;3.53;;;20.50;99.90;;;;;;4990809;28;20232;-81
2022/04/17 10:53:59;;;;;;;4.80;3.75;;;20.50;99.90;;;;;;4991482;28;20205;-81
2022/04/17 10:56:28;;;;;;;3.80;3.47;;;20.40;99.90;;;;;;4991201;28;20586;-74
2022/04/17 10:58:56;;;;;;;3.78;3.33;;;20.70;99.90;;;;;;4991408;28;20263;-80
2022/04/17 11:02:01;;;;;;;3.92;2.65;;;20.50;99.90;;;;;;4990792;28;20264;-82
2022/04/17 11:04:29;;;;;;;2.58;2.38;;;20.80;99.90;;;;;;4992437;28;20242;-81
2022/04/17 11:07:26;;;;;;;2.72;2.53;;;20.90;99.90;;;;;;4995372;28;20205;-81
2022/04/17 11:10:23;;;;;;;2.50;2.30;;;20.80;99.90;;;;;;4994926;28;20236;-81
2022/04/17 11:12:57;;;;;;;3.45;2.13;;;20.80;99.90;;;;;;4994842;28;20208;-82
2022/04/17 11:15:29;;;;;;;2.30;2.20;;;21.20;99.90;;;;;;4995114;28;20201;-79
2022/04/17 11:18:01;;;;;;;2.83;2.63;;;21.20;99.90;;;;;;4995140;28;20236;-82
2022/04/17 11:20:30;;;;;;;2.20;2.00;;;21.00;99.90;;;;;;4995132;28;20300;-81
2022/04/17 11:22:58;;;;;;;2.45;2.25;;;21.00;99.90;;;;;;4995127;28;20247;-80
2022/04/17 11:25:29;;;;;;;2.25;1.85;;;21.00;99.90;;;;;;4994833;28;20227;-82
2022/04/17 11:28:02;;;;;;;2.47;2.00;;;21.00;99.90;;;;;;4994934;28;20287;-79
2022/04/17 11:30:35;;;;;;;3.70;1.92;;;20.80;99.90;;;;;;4994609;28;20328;-74
2022/04/17 11:33:06;;;;;;;2.53;2.33;;;20.80;99.90;;;;;;4994242;28;20209;-77
2022/04/17 11:35:34;;;;;;;2.60;2.40;;;20.80;99.90;;;;;;4994641;28;20205;-74
2022/04/17 11:38:04;;;;;;;1.80;1.70;;;20.70;99.90;;;;;;4994493;28;20744;-81
2022/04/17 11:40:33;;;;;;;1.92;1.77;;;20.90;99.90;;;;;;4994338;28;20259;-75
2022/04/17 11:43:16;;;;;;;1.98;1.88;;;21.30;99.90;;;;;;4994486;28;20204;-77
2022/04/17 11:45:44;;;;;;;2.33;1.38;;;21.20;99.90;;;;;;4994432;28;20275;-82
2022/04/17 11:48:12;;;;;;;2.50;2.30;;;20.80;99.90;;;;;;4994194;28;20263;-77
2022/04/17 11:50:41;;;;;;;2.42;2.08;;;20.80;99.90;;;;;;4994476;28;20275;-80
2022/04/17 11:53:13;;;;;;;3.20;1.90;;;21.10;99.90;;;;;;4993960;28;20263;-79
2022/04/17 11:55:41;;;;;;;2.08;1.88;;;21.10;99.90;;;;;;4994030;28;20300;-81
2022/04/17 11:58:13;;;;;;;1.58;1.48;;;21.00;99.90;;;;;;4993722;28;20754;-82
2022/04/17 12:00:41;;;;;;;1.90;1.80;;;21.20;99.90;;;;;;4993987;28;20588;-79
2022/04/17 12:03:09;;;;;;;1.90;1.80;;;21.10;99.90;;;;;;4993946;28;20208;-73
2022/04/17 12:05:37;;;;;;;2.65;2.20;;;21.20;99.90;;;;;;4993999;28;20224;-77
2022/04/17 12:08:13;;;;;;;1.65;1.55;;;21.40;99.90;;;;;;4993708;28;20205;-76
2022/04/17 12:10:41;;;;;;;1.85;1.67;;;21.00;99.90;;;;;;4993647;28;20774;-79
2022/04/17 12:13:21;;;;;;;1.60;1.50;;;20.70;99.90;;;;;;4993489;28;20208;-82
2022/04/17 12:15:58;;;;;;;2.13;1.85;;;20.90;99.90;;;;;;4992508;28;20208;-79
2022/04/17 12:18:25;;;;;;;1.65;1.50;;;21.20;99.90;;;;;;4993675;28;20209;-73
2022/04/17 12:20:57;;;;;;;2.58;1.45;;;21.40;99.90;;;;;;4993687;28;20205;-76
2022/04/17 12:23:24;;;;;;;1.67;1.58;;;21.40;99.90;;;;;;4993559;28;20263;-80
2022/04/17 12:25:52;;;;;;;2.28;1.92;;;21.60;99.90;;;;;;4993634;28;20201;-79
2022/04/17 12:28:20;;;;;;;3.47;1.38;;;21.70;99.90;;;;;;4993337;28;20205;-82
2022/04/17 12:30:47;;;;;;;3.30;1.60;;;21.70;99.90;;;;;;4993319;28;20240;-80
2022/04/17 12:33:23;;;;;;;4.07;1.45;;;21.50;99.90;;;;;;4993227;28;20263;-78
2022/04/17 12:36:03;;;;;;;3.83;2.17;;;21.80;99.90;;;;;;4993728;28;20287;-74
2022/04/17 12:38:30;;;;;;;1.58;1.48;;;21.90;99.90;;;;;;4993089;28;20695;-76
2022/04/17 12:40:58;;;;;;;1.75;1.65;;;21.80;99.90;;;;;;4993891;28;20211;-76
2022/04/17 12:43:30;;;;;;;1.70;1.60;;;21.90;99.90;;;;;;4993330;28;20646;-76
2022/04/17 12:46:00;;;;;;;1.73;1.63;;;21.80;99.90;;;;;;4993582;28;20205;-81
2022/04/17 12:48:29;;;;;;;2.08;1.90;;;22.00;99.90;;;;;;4993439;28;20559;-76
2022/04/17 12:50:58;;;;;;;1.70;1.60;;;22.20;99.90;;;;;;4993402;28;20229;-82
2022/04/17 12:53:25;;;;;;;1.75;1.42;;;22.30;99.90;;;;;;4992943;28;20205;-81
2022/04/17 12:55:53;;;;;;;1.40;1.30;;;22.10;99.90;;;;;;4993351;28;20259;-81
2022/04/17 12:58:20;;;;;;;1.95;1.85;;;22.10;99.90;;;;;;4992649;28;20325;-76
2022/04/17 13:00:58;;;;;;;2.17;1.98;;;22.50;99.90;;;;;;4993192;28;20262;-81
2022/04/17 13:03:35;;;;;;;1.92;1.75;;;22.40;99.90;;;;;;4992937;28;20255;-76
2022/04/17 13:06:04;;;;;;;2.53;1.90;;;22.40;99.90;;;;;;4992317;28;20223;-76